Time;durP1;ratioP1;P1;durP2;ratioP2;P2;SDS_P1;SDS_P2;PMS_P1;PMS_P2;Temp;Humidity;BMP_temperature;BMP_pressure;BME280_temperature;BME280_humidity;BME280_pressure;Samples;Min_cycle;Max_cycle;Signal;HPM_P1;HPM_P2
2022/10/04 00:01:04;;;;;;;11.83;5.70;;;6.60;99.90;;;;;;5027198;28;20935;-63
2022/10/04 00:03:36;;;;;;;14.13;5.60;;;6.60;99.90;;;;;;5026037;28;20417;-63
2022/10/04 00:06:03;;;;;;;48.90;6.63;;;6.60;99.90;;;;;;5019651;28;20533;-63
2022/10/04 00:08:35;;;;;;;31.80;6.70;;;6.60;99.90;;;;;;5029575;28;20520;-63
2022/10/04 00:11:04;;;;;;;12.47;5.40;;;6.60;99.90;;;;;;5026492;28;20442;-62
2022/10/04 00:13:30;;;;;;;33.33;6.50;;;6.60;99.90;;;;;;5021802;28;20465;-63
2022/10/04 00:15:56;;;;;;;14.80;5.43;;;6.60;99.90;;;;;;4993250;28;20493;-62
2022/10/04 00:18:30;;;;;;;10.30;5.30;;;6.50;99.90;;;;;;5021416;28;20960;-62
2022/10/04 00:21:00;;;;;;;6.73;4.43;;;6.50;99.90;;;;;;5028289;28;20616;-63
2022/10/04 00:23:42;;;;;;;14.83;4.73;;;6.50;99.90;;;;;;5025483;28;20442;-63
2022/10/04 00:26:29;;;;;;;42.83;5.70;;;6.50;99.90;;;;;;5009366;28;20454;-63
2022/10/04 00:28:55;;;;;;;16.33;5.07;;;6.50;99.90;;;;;;5033194;28;20418;-63
2022/10/04 00:31:22;;;;;;;28.40;6.70;;;6.50;99.90;;;;;;5032798;28;20791;-63
2022/10/04 00:33:52;;;;;;;23.77;5.40;;;6.40;99.90;;;;;;5031288;28;20285;-63
2022/10/04 00:36:23;;;;;;;39.50;6.60;;;6.40;99.90;;;;;;5032993;28;20430;-63
2022/10/04 00:39:04;;;;;;;48.07;5.87;;;6.30;99.90;;;;;;5028565;28;20445;-63
2022/10/04 00:41:48;;;;;;;8.23;5.10;;;6.30;99.90;;;;;;5032306;28;20426;-63
2022/10/04 00:44:52;;;;;;;13.63;5.57;;;6.20;99.90;;;;;;5022877;28;20414;-64
2022/10/04 00:47:39;;;;;;;19.77;5.63;;;6.20;99.90;;;;;;5011381;28;20437;-63
2022/10/04 00:50:31;;;;;;;47.60;6.20;;;6.20;99.90;;;;;;5032915;28;20446;-63
2022/10/04 00:52:59;;;;;;;43.03;5.77;;;6.20;99.90;;;;;;4999442;28;20421;-63
2022/10/04 00:55:50;;;;;;;66.13;6.60;;;6.10;99.90;;;;;;5022290;28;20475;-63
2022/10/04 00:58:45;;;;;;;8.73;4.30;;;6.10;99.90;;;;;;5018867;28;20407;-63
2022/10/04 01:01:11;;;;;;;16.23;4.67;;;6.00;99.90;;;;;;5021686;28;20402;-63
2022/10/04 01:03:42;;;;;;;5.17;4.10;;;6.00;99.90;;;;;;5031683;28;20952;-63
2022/10/04 01:06:10;;;;;;;40.43;5.30;;;6.00;99.90;;;;;;5031474;28;20257;-63
2022/10/04 01:08:47;;;;;;;48.70;6.23;;;6.00;99.90;;;;;;5028113;28;20470;-63
2022/10/04 01:11:18;;;;;;;5.97;4.30;;;6.00;99.90;;;;;;5010319;28;20434;-63
2022/10/04 01:13:49;;;;;;;7.60;4.30;;;6.00;99.90;;;;;;5027062;28;20536;-63
2022/10/04 01:16:21;;;;;;;7.90;7.10;;;6.00;99.90;;;;;;5010551;28;20501;-63
2022/10/04 01:18:47;;;;;;;26.67;5.70;;;6.00;99.90;;;;;;5014465;28;20850;-63
2022/10/04 01:21:18;;;;;;;7.27;4.50;;;6.10;99.90;;;;;;5026391;28;20481;-63
2022/10/04 01:24:20;;;;;;;6.90;4.20;;;6.10;99.90;;;;;;5029885;28;20226;-63
2022/10/04 01:26:45;;;;;;;17.20;4.40;;;6.10;99.90;;;;;;5029892;28;20430;-63
2022/10/04 01:29:13;;;;;;;38.33;5.43;;;6.10;99.90;;;;;;5029989;28;20447;-63
2022/10/04 01:31:45;;;;;;;26.23;5.10;;;6.00;99.90;;;;;;5026868;28;20593;-63
2022/10/04 01:34:14;;;;;;;14.20;4.60;;;6.00;99.90;;;;;;5028551;28;20493;-63
2022/10/04 01:36:40;;;;;;;23.43;4.50;;;6.00;99.90;;;;;;5029449;28;20438;-63
2022/10/04 01:39:06;;;;;;;8.40;3.80;;;6.00;99.90;;;;;;5032813;28;20484;-63
2022/10/04 01:42:00;;;;;;;5.03;3.57;;;6.00;99.90;;;;;;5029715;28;20533;-63
2022/10/04 01:44:45;;;;;;;4.40;3.70;;;6.00;99.90;;;;;;5026258;28;20435;-63
2022/10/04 01:47:21;;;;;;;32.07;4.40;;;6.00;99.90;;;;;;5026748;28;20456;-63
2022/10/04 01:49:48;;;;;;;14.33;3.83;;;6.00;99.90;;;;;;5023634;28;20780;-63
2022/10/04 01:52:29;;;;;;;19.20;4.10;;;6.00;99.90;;;;;;5020169;28;20443;-63
2022/10/04 01:55:08;;;;;;;14.33;3.90;;;6.00;99.90;;;;;;5018761;28;20466;-63
2022/10/04 01:57:40;;;;;;;12.60;4.87;;;6.00;99.90;;;;;;5026075;28;20439;-64
2022/10/04 02:00:09;;;;;;;7.40;4.00;;;6.00;99.90;;;;;;5025306;28;20426;-63
2022/10/04 02:02:55;;;;;;;9.73;3.83;;;5.90;99.90;;;;;;5022816;28;20426;-63
2022/10/04 02:05:29;;;;;;;38.13;4.90;;;5.90;99.90;;;;;;5024963;28;20459;-63
2022/10/04 02:07:56;;;;;;;18.83;3.87;;;5.80;99.90;;;;;;5027428;28;20430;-62
2022/10/04 02:10:24;;;;;;;32.70;4.50;;;5.80;99.90;;;;;;5021327;28;20515;-63
2022/10/04 02:12:53;;;;;;;7.50;4.13;;;5.80;99.90;;;;;;5029020;28;20944;-63
2022/10/04 02:15:21;;;;;;;11.50;4.63;;;5.80;99.90;;;;;;5025051;28;21143;-63
2022/10/04 02:17:48;;;;;;;9.90;4.00;;;5.80;99.90;;;;;;5031325;28;20434;-63
2022/10/04 02:20:21;;;;;;;19.07;3.77;;;5.80;99.90;;;;;;5021132;28;20426;-63
2022/10/04 02:23:01;;;;;;;10.63;3.67;;;5.80;99.90;;;;;;5025696;28;20426;-63
2022/10/04 02:25:28;;;;;;;54.17;5.60;;;5.90;99.90;;;;;;5031798;28;21082;-63
2022/10/04 02:27:54;;;;;;;125.63;6.93;;;5.90;99.90;;;;;;5049747;28;20508;-63
2022/10/04 02:30:21;;;;;;;38.53;4.27;;;5.80;99.90;;;;;;5049551;28;20401;-63
2022/10/04 02:32:56;;;;;;;12.57;4.07;;;5.70;99.90;;;;;;5038433;28;20895;-63
2022/10/04 02:35:26;;;;;;;16.17;5.07;;;5.70;99.90;;;;;;5030711;28;20994;-63
2022/10/04 02:38:16;;;;;;;43.50;5.30;;;5.70;99.90;;;;;;5031049;28;20774;-63
2022/10/04 02:41:04;;;;;;;13.70;4.57;;;5.70;99.90;;;;;;5027379;28;20426;-63
2022/10/04 02:43:35;;;;;;;14.37;4.20;;;5.60;99.90;;;;;;5027591;28;20502;-63
2022/10/04 02:46:30;;;;;;;8.97;3.53;;;5.60;99.90;;;;;;5011592;28;20411;-63
2022/10/04 02:48:58;;;;;;;12.30;4.17;;;5.60;99.90;;;;;;5013314;28;20510;-63
2022/10/04 02:51:44;;;;;;;13.30;5.13;;;5.60;99.90;;;;;;5028824;28;20739;-63
2022/10/04 02:54:30;;;;;;;6.93;3.87;;;5.60;99.90;;;;;;5020759;28;20468;-63
2022/10/04 02:56:57;;;;;;;6.57;4.27;;;5.60;99.90;;;;;;5030119;28;20476;-64
2022/10/04 02:59:23;;;;;;;10.30;3.40;;;5.70;99.90;;;;;;5018220;28;20431;-63
2022/10/04 03:01:56;;;;;;;17.23;3.43;;;5.70;99.90;;;;;;5025985;28;20983;-63
2022/10/04 03:04:32;;;;;;;20.63;3.60;;;5.60;99.90;;;;;;5035233;28;20184;-63
2022/10/04 03:07:03;;;;;;;19.00;3.40;;;5.60;99.90;;;;;;5021676;28;20845;-62
2022/10/04 03:09:29;;;;;;;7.23;2.77;;;5.60;99.90;;;;;;5024103;28;20439;-63
2022/10/04 03:11:55;;;;;;;4.50;3.13;;;5.50;99.90;;;;;;5022543;28;20977;-63
2022/10/04 03:14:23;;;;;;;3.47;2.97;;;5.50;99.90;;;;;;5026670;28;20533;-63
2022/10/04 03:16:53;;;;;;;5.60;3.50;;;5.40;99.90;;;;;;5020638;28;20458;-63
2022/10/04 03:19:22;;;;;;;4.60;3.40;;;5.40;99.90;;;;;;5030051;28;20453;-63
2022/10/04 03:21:51;;;;;;;8.20;3.70;;;5.40;99.90;;;;;;5027405;28;20493;-63
2022/10/04 03:24:20;;;;;;;17.77;2.80;;;5.40;99.90;;;;;;5026285;28;20465;-63
2022/10/04 03:26:49;;;;;;;11.20;3.17;;;5.40;99.90;;;;;;5021113;28;20521;-63
2022/10/04 03:29:16;;;;;;;7.90;3.57;;;5.50;99.90;;;;;;5027057;28;20431;-63
2022/10/04 03:31:47;;;;;;;12.07;4.13;;;5.50;99.90;;;;;;5030783;28;20466;-63
2022/10/04 03:34:22;;;;;;;30.40;4.07;;;5.50;99.90;;;;;;5023701;28;20463;-63
2022/10/04 03:36:49;;;;;;;37.17;3.43;;;5.40;99.90;;;;;;5021447;28;20434;-63
2022/10/04 03:39:32;;;;;;;57.83;4.70;;;5.40;99.90;;;;;;5021256;28;20865;-63
2022/10/04 03:42:04;;;;;;;14.80;3.03;;;5.40;99.90;;;;;;5005557;28;20441;-63
2022/10/04 03:44:30;;;;;;;26.60;3.03;;;5.30;99.90;;;;;;5022774;28;20481;-63
2022/10/04 03:46:57;;;;;;;3.30;3.00;;;5.30;99.90;;;;;;5020207;28;20473;-63
2022/10/04 03:49:31;;;;;;;25.60;3.43;;;5.30;99.90;;;;;;5022931;28;20502;-62
2022/10/04 03:51:58;;;;;;;43.70;3.57;;;5.30;99.90;;;;;;5026024;28;20430;-62
2022/10/04 03:54:28;;;;;;;47.23;6.27;;;5.30;99.90;;;;;;5019031;28;20471;-63
2022/10/04 03:56:55;;;;;;;14.60;3.30;;;5.20;99.90;;;;;;5014264;28;20427;-62
2022/10/04 03:59:24;;;;;;;14.53;3.37;;;5.20;99.90;;;;;;5021297;28;20852;-55
2022/10/04 04:02:10;;;;;;;17.73;9.90;;;5.10;99.90;;;;;;5022574;28;20435;-58
2022/10/04 04:04:55;;;;;;;70.97;6.40;;;5.20;99.90;;;;;;5025176;28;20462;-55
2022/10/04 04:07:31;;;;;;;54.37;4.77;;;5.20;99.90;;;;;;5013803;28;20446;-60
2022/10/04 04:10:19;;;;;;;18.43;3.50;;;5.20;99.90;;;;;;5010600;28;20488;-60
2022/10/04 04:12:54;;;;;;;8.20;3.10;;;5.10;99.90;;;;;;5019547;28;20441;-60
2022/10/04 04:15:20;;;;;;;5.43;2.60;;;5.20;99.90;;;;;;5021055;28;21072;-60
2022/10/04 04:17:47;;;;;;;6.70;3.00;;;5.20;99.90;;;;;;5018731;28;20428;-62
2022/10/04 04:20:26;;;;;;;2.67;2.47;;;5.20;99.90;;;;;;5017125;28;20975;-62
2022/10/04 04:23:15;;;;;;;2.70;2.40;;;5.20;99.90;;;;;;5017778;28;20971;-62
2022/10/04 04:25:45;;;;;;;6.10;2.93;;;5.20;99.90;;;;;;5020886;28;20541;-62
2022/10/04 04:28:32;;;;;;;5.30;2.70;;;5.20;99.90;;;;;;5015129;28;20430;-63
2022/10/04 04:31:04;;;;;;;2.63;2.43;;;5.20;99.90;;;;;;5023903;28;20430;-63
2022/10/04 04:33:59;;;;;;;8.40;3.30;;;5.20;99.90;;;;;;5024325;28;20831;-63
2022/10/04 04:36:29;;;;;;;8.10;3.60;;;5.20;99.90;;;;;;5009754;28;21067;-63
2022/10/04 04:39:33;;;;;;;21.77;4.30;;;5.20;99.90;;;;;;5026235;28;20418;-62
2022/10/04 04:42:23;;;;;;;7.37;4.23;;;5.20;99.90;;;;;;5016803;28;20430;-62
2022/10/04 04:44:59;;;;;;;13.13;4.10;;;5.20;99.90;;;;;;5014932;28;20438;-62
2022/10/04 04:47:27;;;;;;;18.57;4.23;;;5.20;99.90;;;;;;5019397;28;20434;-63
2022/10/04 04:49:57;;;;;;;16.30;3.93;;;5.20;99.90;;;;;;5015490;28;20548;-63
2022/10/04 04:52:27;;;;;;;30.97;5.20;;;5.20;99.90;;;;;;5028729;28;20406;-62
2022/10/04 04:54:55;;;;;;;11.50;4.60;;;5.10;99.90;;;;;;5020353;28;20469;-62
2022/10/04 04:57:21;;;;;;;11.30;4.50;;;5.10;99.90;;;;;;5021232;28;20457;-63
2022/10/04 04:59:51;;;;;;;14.30;5.43;;;5.10;99.90;;;;;;5026755;28;20924;-63
2022/10/04 05:02:33;;;;;;;10.50;3.90;;;5.10;99.90;;;;;;5009288;28;20407;-62
2022/10/04 05:05:14;;;;;;;7.80;4.00;;;5.10;99.90;;;;;;5011873;28;20431;-62
2022/10/04 05:07:42;;;;;;;20.60;3.77;;;5.10;99.90;;;;;;5020312;28;20933;-62
2022/10/04 05:10:29;;;;;;;6.50;4.30;;;5.10;99.90;;;;;;5018567;28;20934;-63
2022/10/04 05:12:58;;;;;;;5.70;3.97;;;5.10;99.90;;;;;;5031296;28;20418;-62
2022/10/04 05:15:25;;;;;;;2.77;2.50;;;5.10;99.90;;;;;;5015984;28;20868;-62
2022/10/04 05:17:51;;;;;;;2.63;2.43;;;5.10;99.90;;;;;;5032888;28;20406;-62
2022/10/04 05:20:17;;;;;;;7.00;2.80;;;5.10;99.90;;;;;;5014634;28;20414;-63
2022/10/04 05:22:48;;;;;;;5.57;2.70;;;5.10;99.90;;;;;;5031589;28;20418;-63
2022/10/04 05:25:30;;;;;;;10.97;2.53;;;5.10;99.90;;;;;;5031182;28;20835;-62
2022/10/04 05:27:56;;;;;;;4.83;2.77;;;5.10;99.90;;;;;;5035287;28;20414;-62
2022/10/04 05:30:39;;;;;;;5.17;3.10;;;5.10;99.90;;;;;;5014258;28;20426;-62
2022/10/04 05:33:39;;;;;;;10.30;3.00;;;5.10;99.90;;;;;;5020705;28;20207;-63
2022/10/04 05:36:12;;;;;;;9.27;3.77;;;5.10;99.90;;;;;;5017884;28;20474;-62
2022/10/04 05:38:52;;;;;;;10.47;4.10;;;5.10;99.90;;;;;;5018300;28;20439;-63
2022/10/04 05:41:28;;;;;;;3.83;2.80;;;5.00;99.90;;;;;;5032005;28;20475;-62
2022/10/04 05:43:56;;;;;;;4.33;2.97;;;5.10;99.90;;;;;;5035057;28;20544;-63
2022/10/04 05:46:24;;;;;;;50.87;5.47;;;5.10;99.90;;;;;;5033418;28;20413;-63
2022/10/04 05:49:11;;;;;;;4.57;4.13;;;5.00;99.90;;;;;;5027147;28;20406;-63
2022/10/04 05:52:01;;;;;;;4.10;3.27;;;5.00;99.90;;;;;;5008382;28;20511;-63
2022/10/04 05:54:31;;;;;;;11.03;3.20;;;5.00;99.90;;;;;;5028603;28;20812;-62
2022/10/04 05:57:27;;;;;;;7.27;3.47;;;5.00;99.90;;;;;;5027506;28;20456;-63
2022/10/04 06:00:14;;;;;;;8.50;3.53;;;5.00;99.90;;;;;;5031322;28;20995;-62
2022/10/04 06:03:14;;;;;;;36.03;3.67;;;5.00;99.90;;;;;;5029717;28;20712;-62
2022/10/04 06:05:39;;;;;;;26.03;4.00;;;5.00;99.90;;;;;;5013838;28;20435;-62
2022/10/04 06:08:17;;;;;;;8.33;3.13;;;5.00;99.90;;;;;;5028176;28;20417;-62
2022/10/04 06:10:56;;;;;;;11.70;3.77;;;4.90;99.90;;;;;;5014866;28;20181;-63
2022/10/04 06:13:52;;;;;;;4.17;3.50;;;4.90;99.90;;;;;;5011565;28;20494;-62
2022/10/04 06:16:37;;;;;;;5.60;3.43;;;5.00;99.90;;;;;;5023955;28;20484;-63
2022/10/04 06:19:40;;;;;;;7.67;4.23;;;5.00;99.90;;;;;;5030222;28;20453;-63
2022/10/04 06:22:19;;;;;;;10.83;4.77;;;5.00;99.90;;;;;;5029860;28;20958;-63
2022/10/04 06:24:51;;;;;;;17.70;3.80;;;5.10;99.90;;;;;;5030278;28;21039;-62
2022/10/04 06:27:16;;;;;;;38.53;4.50;;;5.10;99.90;;;;;;5005518;28;20438;-63
2022/10/04 06:29:48;;;;;;;6.40;3.60;;;5.00;99.90;;;;;;5011621;28;20408;-63
2022/10/04 06:32:52;;;;;;;17.30;5.67;;;5.00;99.90;;;;;;5011595;28;20177;-63
2022/10/04 06:35:26;;;;;;;26.43;4.50;;;5.00;99.90;;;;;;5017566;28;20556;-63
2022/10/04 06:38:10;;;;;;;27.93;5.80;;;5.00;99.90;;;;;;5029938;28;20948;-63
2022/10/04 06:40:38;;;;;;;21.07;5.60;;;5.00;99.90;;;;;;5024430;28;20426;-63
2022/10/04 06:43:23;;;;;;;9.97;4.73;;;5.00;99.90;;;;;;5030935;28;20402;-63
2022/10/04 06:46:10;;;;;;;11.40;4.90;;;5.00;99.90;;;;;;5022979;28;20446;-62
2022/10/04 06:49:09;;;;;;;11.70;5.20;;;5.10;99.90;;;;;;5029329;28;21207;-63
2022/10/04 06:52:03;;;;;;;21.40;6.10;;;5.20;99.90;;;;;;5022351;28;20446;-63
2022/10/04 06:54:43;;;;;;;8.13;4.93;;;5.30;99.90;;;;;;4984309;28;20571;-62
2022/10/04 06:57:38;;;;;;;16.90;5.77;;;5.30;99.90;;;;;;5030733;28;20553;-62
2022/10/04 07:00:08;;;;;;;8.47;5.53;;;5.30;99.90;;;;;;5030400;28;20901;-62
2022/10/04 07:02:46;;;;;;;10.60;5.70;;;5.40;99.90;;;;;;5030042;28;20430;-62
2022/10/04 07:05:37;;;;;;;8.70;5.57;;;5.50;99.90;;;;;;5023398;28;20822;-63
2022/10/04 07:08:29;;;;;;;21.50;10.07;;;5.50;99.90;;;;;;5019196;28;20430;-62
2022/10/04 07:11:24;;;;;;;12.80;7.03;;;5.50;99.90;;;;;;5028807;28;20529;-63
2022/10/04 07:14:02;;;;;;;11.30;5.50;;;5.60;99.90;;;;;;5024471;28;20961;-63
2022/10/04 07:16:56;;;;;;;11.97;6.40;;;5.60;99.90;;;;;;5011273;28;20937;-62
2022/10/04 07:19:54;;;;;;;10.17;5.63;;;5.70;99.90;;;;;;5009768;28;20439;-62
2022/10/04 07:22:38;;;;;;;14.67;6.50;;;5.70;99.90;;;;;;5011660;28;20444;-63
2022/10/04 07:25:07;;;;;;;11.40;6.03;;;5.80;99.90;;;;;;5021858;28;20479;-63
2022/10/04 07:30:51;;;;;;;8.23;4.87;;;6.00;99.90;;;;;;5011103;28;20464;-63
2022/10/04 07:33:22;;;;;;;8.40;5.57;;;6.10;99.90;;;;;;5013295;28;20454;-63
2022/10/04 07:35:53;;;;;;;7.20;4.70;;;6.30;99.90;;;;;;5010900;28;20475;-63
2022/10/04 07:38:26;;;;;;;6.50;4.17;;;6.40;99.90;;;;;;5025284;28;20426;-63
2022/10/04 07:41:09;;;;;;;5.00;3.97;;;6.40;99.90;;;;;;5029231;28;20780;-63
2022/10/04 07:44:03;;;;;;;4.00;3.60;;;6.60;99.90;;;;;;4992818;28;20423;-63
2022/10/04 07:46:40;;;;;;;5.20;3.40;;;6.70;99.90;;;;;;5017202;28;20445;-62
2022/10/04 07:49:20;;;;;;;5.00;3.80;;;6.80;99.90;;;;;;5027811;28;20426;-63
2022/10/04 07:52:17;;;;;;;5.70;4.23;;;6.90;99.90;;;;;;5010183;28;20431;-63
2022/10/04 07:55:01;;;;;;;5.20;4.10;;;7.00;99.90;;;;;;5018462;28;20481;-63
2022/10/04 07:57:43;;;;;;;6.30;4.10;;;7.10;99.90;;;;;;5007666;28;20438;-63
2022/10/04 08:00:23;;;;;;;7.07;4.37;;;7.20;99.90;;;;;;5018880;28;20419;-63
2022/10/04 08:02:57;;;;;;;8.93;5.20;;;7.20;99.90;;;;;;5024332;28;20803;-63
2022/10/04 08:05:46;;;;;;;6.73;4.80;;;7.30;99.90;;;;;;5028144;28;20439;-63
2022/10/04 08:08:21;;;;;;;5.03;4.13;;;7.30;99.90;;;;;;5028791;28;20438;-63
2022/10/04 08:11:11;;;;;;;6.60;4.83;;;7.30;99.90;;;;;;5010475;28;20415;-63
2022/10/04 08:14:10;;;;;;;7.17;4.77;;;7.40;99.90;;;;;;5024884;28;20525;-63
2022/10/04 08:17:00;;;;;;;9.73;4.83;;;7.40;99.90;;;;;;5010706;28;20482;-63
2022/10/04 08:19:55;;;;;;;6.00;5.40;;;7.50;99.90;;;;;;5029122;28;20407;-63
2022/10/04 08:22:32;;;;;;;22.23;5.50;;;7.60;99.90;;;;;;4973613;28;20434;-63
2022/10/04 08:25:01;;;;;;;9.63;6.80;;;7.70;99.90;;;;;;5027209;28;20461;-63
2022/10/04 08:27:29;;;;;;;10.63;6.80;;;7.80;99.90;;;;;;5024232;28;20546;-63
2022/10/04 08:30:03;;;;;;;10.70;7.47;;;7.90;99.90;;;;;;5029698;28;20418;-63
2022/10/04 08:32:31;;;;;;;15.50;9.27;;;8.20;99.90;;;;;;5029283;28;20482;-63
2022/10/04 08:34:57;;;;;;;15.60;10.10;;;8.40;99.90;;;;;;5028995;28;20454;-63
2022/10/04 08:37:44;;;;;;;15.37;9.40;;;8.50;99.90;;;;;;5002027;28;20428;-63
2022/10/04 08:40:25;;;;;;;16.50;8.70;;;8.70;99.90;;;;;;5026795;28;20700;-63
2022/10/04 08:43:19;;;;;;;20.27;9.83;;;8.90;99.90;;;;;;5023000;28;20437;-63
2022/10/04 08:46:25;;;;;;;18.00;8.47;;;9.00;99.90;;;;;;5032638;28;20450;-63
2022/10/04 08:49:36;;;;;;;12.23;8.30;;;9.10;99.90;;;;;;5033425;28;20425;-64
2022/10/04 08:52:11;;;;;;;18.53;8.80;;;9.20;99.90;;;;;;5013604;28;20428;-63
2022/10/04 08:55:33;;;;;;;22.63;10.00;;;9.30;99.90;;;;;;5031583;28;20473;-63
2022/10/04 08:58:05;;;;;;;12.63;9.20;;;9.50;99.90;;;;;;4971565;28;20413;-63
2022/10/04 09:00:48;;;;;;;16.93;9.30;;;9.60;99.90;;;;;;4971230;28;20413;-64
2022/10/04 09:03:29;;;;;;;15.23;9.00;;;9.60;99.90;;;;;;5016877;28;20843;-63
2022/10/04 09:06:32;;;;;;;13.47;9.13;;;9.70;99.90;;;;;;5031343;28;20457;-63
2022/10/04 09:09:13;;;;;;;14.73;8.10;;;9.80;99.90;;;;;;5029609;28;20576;-63
2022/10/04 09:12:00;;;;;;;13.43;8.73;;;9.90;99.90;;;;;;5032062;28;20712;-63
2022/10/04 09:14:37;;;;;;;13.40;8.67;;;9.90;99.90;;;;;;5033349;28;20830;-63
2022/10/04 09:17:52;;;;;;;13.63;8.30;;;10.00;99.90;;;;;;5025256;28;20406;-63
2022/10/04 09:20:23;;;;;;;12.20;8.50;;;10.10;99.90;;;;;;5028021;28;20430;-63
2022/10/04 09:23:10;;;;;;;16.53;9.17;;;10.20;99.90;;;;;;4996787;28;20412;-64
2022/10/04 09:25:56;;;;;;;14.10;8.03;;;10.40;99.90;;;;;;5031714;28;20429;-63
2022/10/04 09:28:46;;;;;;;14.30;7.47;;;10.60;99.90;;;;;;5032123;28;20418;-63
2022/10/04 09:31:46;;;;;;;14.43;7.50;;;10.80;99.90;;;;;;5034481;28;20421;-64
2022/10/04 09:34:34;;;;;;;10.23;7.07;;;11.00;99.90;;;;;;5032289;28;20513;-64
2022/10/04 09:37:44;;;;;;;12.67;8.13;;;11.10;99.90;;;;;;5022509;28;20425;-64
2022/10/04 09:40:34;;;;;;;12.47;7.70;;;11.20;99.90;;;;;;4981476;28;20980;-64
2022/10/04 09:43:27;;;;;;;10.93;7.43;;;11.20;99.90;;;;;;5011976;28;20391;-64
2022/10/04 09:46:17;;;;;;;10.40;6.63;;;11.30;99.90;;;;;;5018447;28;20438;-64
2022/10/04 09:49:21;;;;;;;10.23;5.60;;;11.40;99.90;;;;;;5014383;28;20465;-64
2022/10/04 09:51:52;;;;;;;8.70;5.97;;;11.60;99.90;;;;;;5005599;28;20461;-63
2022/10/04 09:54:21;;;;;;;9.37;5.97;;;11.70;99.90;;;;;;5021280;28;20462;-64
2022/10/04 09:57:26;;;;;;;12.10;6.30;;;11.90;99.90;;;;;;5031901;28;20426;-64
2022/10/04 10:00:23;;;;;;;9.67;5.50;;;12.10;99.90;;;;;;5030377;28;20518;-63
2022/10/04 10:03:01;;;;;;;12.30;5.77;;;12.30;99.90;;;;;;5007776;28;20426;-64
2022/10/04 10:05:47;;;;;;;11.00;6.87;;;12.40;99.90;;;;;;5029607;28;20438;-64
2022/10/04 10:08:39;;;;;;;10.07;5.50;;;12.60;99.90;;;;;;5029957;28;20430;-63
2022/10/04 10:14:39;;;;;;;14.03;5.37;;;12.90;99.90;;;;;;5013192;28;20470;-63
2022/10/04 10:17:23;;;;;;;9.40;5.43;;;13.10;99.90;;;;;;5032272;28;21028;-64
2022/10/04 10:20:02;;;;;;;10.37;6.60;;;13.20;99.90;;;;;;5027372;28;20488;-63
2022/10/04 10:22:59;;;;;;;9.27;6.10;;;13.30;99.90;;;;;;5020937;28;20854;-64
2022/10/04 10:26:03;;;;;;;11.00;6.37;;;13.40;99.90;;;;;;5030991;28;20461;-64
2022/10/04 10:29:07;;;;;;;8.17;5.40;;;13.50;99.90;;;;;;4930427;29;20485;-63
2022/10/04 10:32:03;;;;;;;10.73;6.40;;;13.70;99.90;;;;;;4912610;29;20411;-63
2022/10/04 10:34:53;;;;;;;8.53;6.57;;;14.00;99.90;;;;;;4997546;28;20905;-64
2022/10/04 10:37:40;;;;;;;11.50;5.40;;;14.20;99.90;;;;;;5018523;28;20411;-64
2022/10/04 10:40:31;;;;;;;7.50;5.47;;;14.30;99.90;;;;;;5030653;28;20423;-64
2022/10/04 10:43:36;;;;;;;7.73;6.00;;;14.40;99.90;;;;;;5013028;28;20494;-64
2022/10/04 10:46:40;;;;;;;10.63;5.27;;;14.40;99.90;;;;;;5030645;28;20446;-64
2022/10/04 10:49:08;;;;;;;7.93;5.40;;;14.60;99.90;;;;;;5016241;28;20416;-64
2022/10/04 10:51:49;;;;;;;7.70;4.97;;;14.90;99.90;;;;;;5012805;28;20424;-64
2022/10/04 10:54:46;;;;;;;9.30;5.40;;;15.10;99.90;;;;;;5023096;28;20454;-64
2022/10/04 10:57:33;;;;;;;7.70;5.40;;;15.40;99.90;;;;;;5027561;28;20438;-64
2022/10/04 11:00:13;;;;;;;8.37;5.00;;;15.70;99.90;;;;;;5029642;28;20768;-64
2022/10/04 11:02:41;;;;;;;10.43;5.23;;;16.00;99.90;;;;;;5028642;28;20517;-64
2022/10/04 11:05:24;;;;;;;12.47;4.90;;;16.20;96.80;;;;;;5030067;28;20452;-64
2022/10/04 11:07:53;;;;;;;10.03;5.47;;;16.50;92.80;;;;;;5029763;28;20891;-64
2022/10/04 11:10:40;;;;;;;9.50;5.10;;;16.70;91.80;;;;;;5014918;28;20461;-64
2022/10/04 11:13:28;;;;;;;11.27;4.53;;;17.10;91.70;;;;;;5029601;28;20430;-64
2022/10/04 11:16:14;;;;;;;7.63;4.40;;;17.50;83.30;;;;;;5028784;28;20470;-64
2022/10/04 11:18:40;;;;;;;6.40;4.40;;;18.20;75.20;;;;;;5029978;28;20883;-64
2022/10/04 11:21:25;;;;;;;5.90;3.83;;;18.50;65.70;;;;;;5030952;28;20437;-64
2022/10/04 11:24:38;;;;;;;10.27;3.77;;;18.90;65.00;;;;;;5029259;28;20171;-64
2022/10/04 11:27:17;;;;;;;7.90;3.73;;;19.50;62.40;;;;;;5010267;28;20435;-64
2022/10/04 11:29:57;;;;;;;6.87;3.67;;;20.00;60.10;;;;;;5013789;28;20410;-64
2022/10/04 11:32:35;;;;;;;11.20;3.13;;;20.30;59.10;;;;;;5029036;28;20964;-65
2022/10/04 11:35:20;;;;;;;7.03;3.87;;;20.60;58.10;;;;;;5029291;28;20485;-65
2022/10/04 11:38:01;;;;;;;7.47;3.33;;;20.80;57.20;;;;;;5025377;28;20537;-65
2022/10/04 11:40:45;;;;;;;5.60;3.00;;;21.10;57.40;;;;;;5026807;28;20488;-65
2022/10/04 11:43:45;;;;;;;5.70;2.80;;;21.30;55.90;;;;;;5024905;28;20446;-65
2022/10/04 11:46:35;;;;;;;6.70;2.93;;;21.50;56.30;;;;;;5011300;28;20457;-65
2022/10/04 11:49:18;;;;;;;3.70;2.77;;;21.70;55.80;;;;;;5020112;28;20436;-65
2022/10/04 11:52:10;;;;;;;5.07;2.67;;;21.70;54.00;;;;;;5028546;28;20480;-65
2022/10/04 11:54:57;;;;;;;3.60;2.60;;;21.80;54.70;;;;;;5006634;28;20524;-65
2022/10/04 11:57:46;;;;;;;5.43;2.77;;;21.80;53.90;;;;;;5024556;28;21160;-65
2022/10/04 12:00:25;;;;;;;3.90;2.53;;;21.80;53.10;;;;;;5021705;28;20418;-65
2022/10/04 12:03:09;;;;;;;5.20;2.87;;;21.90;52.80;;;;;;5024285;28;20450;-65
2022/10/04 12:05:57;;;;;;;5.77;3.40;;;21.90;52.00;;;;;;4997731;28;20451;-65
2022/10/04 12:08:42;;;;;;;3.03;2.73;;;21.70;50.80;;;;;;5028603;28;20964;-65
2022/10/04 12:12:35;;;;;;;9.80;3.17;;;21.70;50.80;;;;;;5018417;28;20429;-65
2022/10/04 12:14:46;;;;;;;10.10;3.57;;;21.70;51.90;;;;;;5032567;28;20458;-65
2022/10/04 12:17:40;;;;;;;6.73;3.63;;;21.70;50.70;;;;;;5028672;28;20442;-65
2022/10/04 12:20:37;;;;;;;5.70;3.87;;;21.60;50.20;;;;;;5031606;28;20534;-65
2022/10/04 12:23:19;;;;;;;12.10;4.40;;;21.60;51.80;;;;;;5033467;28;20489;-65
2022/10/04 12:26:09;;;;;;;9.50;4.03;;;21.70;53.00;;;;;;5018926;28;20459;-65
2022/10/04 12:29:10;;;;;;;6.50;4.13;;;21.90;53.50;;;;;;4995741;28;20922;-65
2022/10/04 12:31:45;;;;;;;9.63;4.30;;;21.90;52.00;;;;;;5013449;28;20395;-65
2022/10/04 12:34:15;;;;;;;5.90;3.77;;;21.90;52.90;;;;;;5028624;28;21015;-65
2022/10/04 12:37:05;;;;;;;5.20;4.20;;;22.00;52.20;;;;;;5000890;28;20433;-65
2022/10/04 12:39:52;;;;;;;12.50;4.80;;;22.00;52.20;;;;;;5030950;28;20952;-65
2022/10/04 12:42:21;;;;;;;5.53;4.00;;;22.20;52.50;;;;;;5008649;28;20979;-65
2022/10/04 12:45:05;;;;;;;5.13;3.93;;;22.30;51.10;;;;;;5013342;28;20455;-65
2022/10/04 12:47:49;;;;;;;7.87;4.23;;;22.20;51.70;;;;;;5024618;28;20422;-64
2022/10/04 12:50:58;;;;;;;5.70;3.40;;;22.20;51.00;;;;;;5033126;28;20948;-65
2022/10/04 12:53:43;;;;;;;7.27;4.20;;;22.20;51.50;;;;;;4960512;28;20438;-65
2022/10/04 12:56:21;;;;;;;4.50;3.67;;;22.10;51.10;;;;;;5028336;28;20461;-64
2022/10/04 12:58:52;;;;;;;8.67;3.80;;;22.10;50.60;;;;;;5032869;28;20908;-65
2022/10/04 13:01:41;;;;;;;5.00;3.80;;;22.00;50.80;;;;;;5028661;28;20457;-65
2022/10/04 13:04:26;;;;;;;9.13;3.63;;;22.10;51.00;;;;;;5022714;28;20415;-65
2022/10/04 13:07:09;;;;;;;5.97;3.30;;;22.20;51.40;;;;;;5031743;28;20411;-65
2022/10/04 13:09:57;;;;;;;8.53;3.50;;;22.40;51.30;;;;;;5031436;28;20394;-64
2022/10/04 13:12:26;;;;;;;9.10;3.70;;;22.40;50.50;;;;;;5022348;28;20906;-65
2022/10/04 13:14:54;;;;;;;8.27;3.60;;;22.30;49.60;;;;;;5031460;28;20470;-65
2022/10/04 13:17:43;;;;;;;10.67;3.00;;;22.00;50.50;;;;;;5026860;28;20466;-65
2022/10/04 13:20:32;;;;;;;4.57;3.20;;;21.80;51.10;;;;;;5000206;28;20434;-65
2022/10/04 13:23:35;;;;;;;5.00;3.63;;;21.60;52.30;;;;;;5031868;28;20690;-65
2022/10/04 13:26:22;;;;;;;3.93;3.40;;;21.40;51.00;;;;;;4970159;28;20517;-64
2022/10/04 13:29:01;;;;;;;7.03;3.60;;;21.40;51.30;;;;;;5031653;28;21064;-65
2022/10/04 13:31:34;;;;;;;5.27;3.67;;;21.50;51.20;;;;;;5029886;28;20419;-65
2022/10/04 13:34:15;;;;;;;4.23;3.27;;;21.80;51.90;;;;;;5021701;28;20952;-65
2022/10/04 13:37:21;;;;;;;7.70;3.33;;;22.00;51.50;;;;;;5019908;28;20466;-65
2022/10/04 13:40:01;;;;;;;6.33;3.30;;;22.20;51.00;;;;;;5047839;28;20402;-65
2022/10/04 13:42:41;;;;;;;4.90;3.10;;;22.40;51.10;;;;;;5026697;28;21002;-64
2022/10/04 13:45:17;;;;;;;4.87;3.80;;;22.60;50.20;;;;;;5012122;28;20439;-65
2022/10/04 13:47:59;;;;;;;6.17;3.60;;;22.70;49.60;;;;;;5025246;28;20511;-65
2022/10/04 13:50:34;;;;;;;6.77;3.10;;;22.90;49.20;;;;;;5030741;28;20430;-65
2022/10/04 13:56:48;;;;;;;8.10;3.93;;;23.30;49.60;;;;;;5029363;28;20457;-65
2022/10/04 13:59:24;;;;;;;5.77;3.97;;;23.50;49.10;;;;;;5011492;28;20977;-65
2022/10/04 14:02:14;;;;;;;4.20;2.80;;;23.60;48.80;;;;;;5000998;28;20928;-64
2022/10/04 14:05:01;;;;;;;11.73;3.50;;;23.60;47.60;;;;;;5036361;28;20600;-65
2022/10/04 14:08:08;;;;;;;3.90;3.13;;;23.70;47.50;;;;;;5042651;28;20770;-64